D/T METAR WX W/DIR W/SPE G/SPE TEMP DEWP
25/02/20 15:50 EGPH 251550Z 25009KT 9999 FEW016 SCT024 04/01 Q0990 WSW (250°) 10.4mph 4°C 1°C
25/02/20 15:20 EGPH 251520Z 24010KT 9999 SCT016 05/03 Q0990 WSW (240°) 11.5mph 5°C 3°C
25/02/20 14:50 EGPH 251450Z 26007KT 9999 SCT016 04/02 Q0990 W (260°) 8.1mph 4°C 2°C
25/02/20 14:20 EGPH 251420Z 27007KT 240V300 9999 FEW017 04/02 Q0990 W (270°) 8.1mph 4°C 2°C
25/02/20 13:50 EGPH 251350Z 27008KT 9999 FEW009 SCT016 04/02 Q0990 W (270°) 9.2mph 4°C 2°C
25/02/20 13:20 EGPH 251320Z 28011KT 250V310 9999 -RA FEW013 SCT027 04/02 Q0990 -RA W (280°) 12.7mph 4°C 2°C
25/02/20 12:50 EGPH 251250Z 25011KT 9999 SCT020 06/03 Q0991 WSW (250°) 12.7mph 6°C 3°C
25/02/20 12:20 EGPH 251220Z 26009KT 230V300 9999 SCT017 05/02 Q0991 W (260°) 10.4mph 5°C 2°C
25/02/20 11:50 EGPH 251150Z 24009KT 9999 FEW013 SCT024 05/03 Q0991 WSW (240°) 10.4mph 5°C 3°C
25/02/20 11:20 EGPH 251120Z 25009KT 220V290 9999 SCT011 05/03 Q0991 WSW (250°) 10.4mph 5°C 3°C
25/02/20 10:50 EGPH 251050Z 25008KT 9999 SCT011 04/02 Q0992 WSW (250°) 9.2mph 4°C 2°C
25/02/20 10:20 EGPH 251020Z 25008KT 9999 FEW012 SCT039 03/02 Q0992 WSW (250°) 9.2mph 3°C 2°C
25/02/20 09:50 EGPH 250950Z 25009KT 9999 SCT011 03/02 Q0992 WSW (250°) 10.4mph 3°C 2°C
25/02/20 09:20 EGPH 250920Z 25008KT 9999 SCT012 03/02 Q0992 WSW (250°) 9.2mph 3°C 2°C
25/02/20 08:50 EGPH 250850Z 26007KT 9999 SCT011 03/02 Q0992 W (260°) 8.1mph 3°C 2°C
25/02/20 08:20 EGPH 250820Z 26006KT 9999 FEW010 SCT024 02/02 Q0992 W (260°) 6.9mph 2°C 2°C
25/02/20 07:50 EGPH 250750Z 25006KT 9999 FEW009 SCT025 02/01 Q0993 WSW (250°) 6.9mph 2°C 1°C
25/02/20 07:20 EGPH 250720Z 24006KT 9999 BKN010 02/01 Q0993 WSW (240°) 6.9mph 2°C 1°C
25/02/20 06:50 EGPH 250650Z 25008KT 9999 BKN009 02/01 Q0993 WSW (250°) 9.2mph 2°C 1°C
25/02/20 06:20 EGPH 250620Z 24006KT 9999 BKN010 01/01 Q0993 WSW (240°) 6.9mph 1°C 1°C
25/02/20 05:50 EGPH 250550Z 24006KT 9999 SCT018 BKN028 01/00 Q0993 WSW (240°) 6.9mph 1°C 0°C
25/02/20 05:20 EGPH 250520Z 24006KT 9999 FEW012 02/01 Q0994 WSW (240°) 6.9mph 2°C 1°C
25/02/20 04:50 EGPH 250450Z 25007KT 9999 BKN012 02/02 Q0994 WSW (250°) 8.1mph 2°C 2°C
25/02/20 04:20 EGPH 250420Z 25007KT 9999 BKN010 02/02 Q0994 WSW (250°) 8.1mph 2°C 2°C
25/02/20 03:50 EGPH 250350Z 24008KT 9999 BKN009 02/02 Q0994 WSW (240°) 9.2mph 2°C 2°C
25/02/20 03:20 EGPH 250320Z 24003KT 9999 BKN012 01/01 Q0994 WSW (240°) 3.5mph 1°C 1°C
25/02/20 02:50 EGPH 250250Z 22007KT 9999 FEW017 02/01 Q0995 SW (220°) 8.1mph 2°C 1°C
25/02/20 02:20 EGPH 250220Z 26007KT CAVOK 02/01 Q0995 W (260°) 8.1mph 2°C 1°C
25/02/20 01:50 EGPH 250150Z 26006KT CAVOK 02/01 Q0995 W (260°) 6.9mph 2°C 1°C
25/02/20 01:20 EGPH 250120Z 26006KT CAVOK 02/01 Q0995 W (260°) 6.9mph 2°C 1°C
25/02/20 00:50 EGPH 250050Z 27006KT 230V320 CAVOK 02/01 Q0996 W (270°) 6.9mph 2°C 1°C
25/02/20 00:20 EGPH 250020Z 26005KT CAVOK 02/00 Q0996 W (260°) 5.8mph 2°C 0°C
24/02/20 23:50 EGPH 242350Z 25008KT CAVOK 02/00 Q0996 WSW (250°) 9.2mph 2°C 0°C
24/02/20 23:20 EGPH 242320Z 25009KT CAVOK 02/01 Q0996 WSW (250°) 10.4mph 2°C 1°C
24/02/20 22:50 EGPH 242250Z 24005KT CAVOK 02/01 Q0996 WSW (240°) 5.8mph 2°C 1°C
24/02/20 22:20 EGPH 242220Z 25006KT CAVOK 02/01 Q0995 WSW (250°) 6.9mph 2°C 1°C
24/02/20 21:50 EGPH 242150Z 26009KT CAVOK 02/01 Q0995 W (260°) 10.4mph 2°C 1°C
24/02/20 21:20 EGPH 242120Z 26011KT CAVOK 03/01 Q0995 W (260°) 12.7mph 3°C 1°C
24/02/20 20:50 EGPH 242050Z 26010KT 9999 FEW014 03/01 Q0995 W (260°) 11.5mph 3°C 1°C
24/02/20 20:20 EGPH 242020Z 26007KT 9999 FEW013 03/02 Q0995 W (260°) 8.1mph 3°C 2°C
24/02/20 19:50 EGPH 241950Z 26007KT 9999 SCT011 03/02 Q0995 W (260°) 8.1mph 3°C 2°C
24/02/20 19:20 EGPH 241920Z 26008KT 9999 SCT010 BKN020 03/02 Q0995 W (260°) 9.2mph 3°C 2°C
24/02/20 18:50 EGPH 241850Z 28008KT 9999 -RA BKN007 BKN015 03/02 Q0995 -RA W (280°) 9.2mph 3°C 2°C
24/02/20 18:20 EGPH 241820Z 29007KT 9000 -RA BKN007 03/02 Q0994 -RA WNW (290°) 8.1mph 3°C 2°C
24/02/20 17:50 EGPH 241750Z 29009KT 250V320 9000 -RA BKN005 OVC020 02/02 Q0994 -RA WNW (290°) 10.4mph 2°C 2°C
24/02/20 17:20 EGPH 241720Z 28008KT 5000 -RADZ BKN004 BKN018 02/02 Q0993 -RA -DZ W (280°) 9.2mph 2°C 2°C
24/02/20 16:20 EGPH 241620Z 28008KT 4500 -RA BKN004 03/03 Q0992 -RA W (280°) 9.2mph 3°C 3°C
24/02/20 15:50 EGPH 241550Z 26006KT 7000 BKN004 BKN011 03/03 Q0992 W (260°) 6.9mph 3°C 3°C